Milwaukee, Wisconsin
Traffic Map
Current Weather Conditions
Milwaukee, Wisconsin
Broken Clouds Moderate Fog
Broken Clouds
71°
Feels Like: 71°
Wind Chill: 71° Ceiling: 100
Heat Index: 71° Visibility: 0.25mi
Dew Point: 69° Wind: 0mph
Humidity: 93% Direction: ° ()
Pressure: 29.93in Gusts: 0mph
Raw Report DataKMKE 221152Z 00000KT 1/4SM FG BKN001 22/21 A2993 RMK AO2 SLP132 70044 T02170206 10217 20211 55001 RVRNO
Traffic Incident Summary
Active as of:
Severity:
Category:
InformationThere was an issue retrieving the traffic information for this location. Please try a different location or try again shortly.
Advertisements
Track Severe Weather on mobile